createdAt,value
2018-05-16T04:09:37.516Z,1224
2018-05-16T04:10:02.988Z,1240
2018-05-16T04:10:28.438Z,1260
2018-05-16T04:10:53.938Z,1276
2018-05-16T04:11:19.404Z,1296
2018-05-16T04:11:44.923Z,1312
2018-05-16T04:12:10.945Z,1328
2018-05-16T04:12:36.361Z,1344
2018-05-16T04:13:01.965Z,1364
2018-05-16T04:13:27.344Z,1376
2018-05-16T04:13:52.850Z,1392
2018-05-16T04:14:18.267Z,1408
2018-05-16T04:14:43.826Z,1424
2018-05-16T04:15:09.244Z,1440
2018-05-16T04:15:34.720Z,1452
2018-05-16T04:16:00.254Z,1464
2018-05-16T04:16:25.717Z,1480
2018-05-16T04:16:51.335Z,1500
2018-05-16T04:17:16.809Z,1512
2018-05-16T04:17:42.281Z,1532
2018-05-16T04:18:07.797Z,1544
2018-05-16T04:18:33.292Z,1556
2018-05-16T04:18:58.794Z,1572
2018-05-16T04:19:24.302Z,1588
2018-05-16T04:19:49.802Z,1604
2018-05-16T04:20:15.268Z,1620
2018-05-16T04:20:40.795Z,1632
2018-05-16T04:21:06.287Z,1648
2018-05-16T04:21:31.758Z,1668
2018-05-16T04:22:55.789Z,1728
2018-05-16T04:23:21.278Z,1744
2018-05-16T04:23:46.753Z,1764
2018-05-16T04:24:12.224Z,1780
2018-05-16T04:24:37.740Z,1868
2018-05-16T04:25:03.198Z,1892
2018-05-16T04:25:28.686Z,1916
2018-05-16T04:25:54.219Z,1940
2018-05-16T04:26:19.710Z,1976
2018-05-16T04:26:45.209Z,2016
2018-05-16T04:27:10.693Z,2060
2018-05-16T04:28:14.306Z,2192
2018-05-16T04:28:39.885Z,2248
2018-05-16T04:29:05.290Z,2300
2018-05-16T04:29:30.788Z,2340
2018-05-16T04:29:56.281Z,2384
2018-05-16T04:30:21.732Z,2420
2018-05-16T04:30:47.222Z,2456
2018-05-16T04:31:12.795Z,2484
2018-05-16T04:31:38.509Z,2516
2018-05-16T04:32:04.212Z,2548
2018-05-16T04:32:29.891Z,2588
2018-05-16T04:32:55.309Z,2632
2018-05-16T04:33:20.789Z,2676
2018-05-16T04:33:46.345Z,2720
2018-05-16T04:34:11.807Z,2760
2018-05-16T04:34:37.291Z,2804
2018-05-16T04:35:02.792Z,2840
2018-05-16T04:35:28.229Z,2872
2018-05-16T04:35:53.719Z,2900
2018-05-16T04:36:19.185Z,2932
2018-05-16T04:36:44.666Z,2952
2018-05-16T04:37:10.225Z,2980
2018-05-16T04:37:35.734Z,3012
2018-05-16T04:38:01.355Z,3044
2018-05-16T04:38:26.737Z,3080
2018-05-16T04:38:52.222Z,3116
2018-05-16T04:39:17.800Z,3144
2018-05-16T04:39:43.330Z,3164
2018-05-16T04:40:08.889Z,3180
2018-05-16T04:40:34.551Z,3192
2018-05-16T04:41:00.121Z,3208
2018-05-16T04:41:25.813Z,3220
2018-05-16T04:41:51.358Z,3236
2018-05-16T04:42:16.814Z,3252
2018-05-16T04:42:42.351Z,3264
2018-05-16T04:43:08.304Z,3284
2018-05-16T04:43:34.618Z,3304
2018-05-16T04:44:00.312Z,3332
2018-05-16T04:44:26.158Z,3348
2018-05-16T04:44:51.582Z,3372
2018-05-16T04:45:17.126Z,3396
2018-05-16T04:45:42.831Z,3420
2018-05-16T04:46:08.640Z,3448
2018-05-16T04:46:34.436Z,3472
2018-05-16T04:46:59.942Z,3492
2018-05-16T04:47:25.506Z,3496
2018-05-16T04:47:51.125Z,3500
2018-05-16T04:48:16.688Z,3508
2018-05-16T04:48:42.544Z,3516
2018-05-16T04:49:08.344Z,3536
2018-05-16T04:49:34.206Z,3564
2018-05-16T04:49:59.708Z,3596
2018-05-16T04:50:25.400Z,3628
2018-05-16T04:50:50.944Z,3664
2018-05-16T04:51:16.576Z,3696
2018-05-16T04:51:42.121Z,3732
2018-05-16T04:52:07.810Z,3764
2018-05-16T04:52:33.370Z,3796
2018-05-16T04:52:59.021Z,3820
2018-05-16T04:53:24.812Z,3852
2018-05-16T04:53:50.369Z,3888
2018-05-16T04:54:16.116Z,3920
2018-05-16T04:54:41.809Z,3948
2018-05-16T04:55:07.816Z,3956
2018-05-16T04:55:33.374Z,3964
2018-05-16T04:55:59.071Z,3956
2018-05-16T04:56:24.829Z,3952
2018-05-16T04:56:50.738Z,3956
2018-05-16T04:57:16.516Z,3972
2018-05-16T04:57:42.180Z,3996
2018-05-16T04:58:07.864Z,4016
2018-05-16T04:58:33.445Z,4052
2018-05-16T04:58:58.994Z,4084
2018-05-16T04:59:24.776Z,4128
2018-05-16T04:59:50.189Z,4168
2018-05-16T05:00:15.986Z,4212
2018-05-16T05:00:41.364Z,4236
2018-05-16T05:01:07.005Z,4264
2018-05-16T05:01:32.538Z,4292
2018-05-16T05:01:58.428Z,4332
2018-05-16T05:02:24.217Z,4364
2018-05-16T05:02:49.752Z,4400
2018-05-16T05:03:15.421Z,4436
2018-05-16T05:03:40.951Z,4468
2018-05-16T05:04:06.719Z,4500
2018-05-16T05:04:32.523Z,4524
2018-05-16T05:04:58.316Z,4552
2018-05-16T05:05:23.835Z,4584
2018-05-16T05:05:49.359Z,4604
2018-05-16T05:06:14.912Z,4624
2018-05-16T05:06:40.505Z,4640
2018-05-16T05:07:06.119Z,4668
2018-05-16T05:07:32.121Z,4708
2018-05-16T05:07:57.295Z,4736
2018-05-16T05:08:22.871Z,4756
2018-05-16T05:08:48.626Z,4784
2018-05-16T05:09:14.128Z,4804
2018-05-16T05:09:39.955Z,4816
2018-05-16T05:10:05.437Z,4828
2018-05-16T05:10:31.140Z,4852
2018-05-16T05:10:56.781Z,4872
2018-05-16T05:11:22.322Z,4892
2018-05-16T05:11:47.885Z,4908
2018-05-16T05:12:13.554Z,4912
2018-05-16T05:12:39.311Z,4920
2018-05-16T05:13:05.015Z,4944
2018-05-16T05:13:30.746Z,4968
2018-05-16T05:13:56.426Z,4992
2018-05-16T05:14:22.013Z,5020
2018-05-16T05:14:47.639Z,5036
2018-05-16T05:15:13.430Z,5052
2018-05-16T05:15:38.984Z,5064
2018-05-16T05:16:04.493Z,5104
2018-05-16T05:16:30.163Z,5124
2018-05-16T05:16:55.667Z,5164
2018-05-16T05:17:21.184Z,5208
2018-05-16T05:17:46.680Z,5256
2018-05-16T05:18:12.379Z,5304
2018-05-16T05:18:37.870Z,5348
2018-05-16T05:19:03.320Z,5400
2018-05-16T05:19:28.828Z,5440
2018-05-16T05:19:54.408Z,5468
2018-05-16T05:20:19.932Z,5488
2018-05-16T05:20:45.354Z,5516
2018-05-16T05:21:10.848Z,5556
2018-05-16T05:21:36.368Z,5580
2018-05-16T05:22:01.859Z,5592
2018-05-16T05:22:27.340Z,5604
2018-05-16T05:22:52.804Z,5636
2018-05-16T05:23:18.319Z,5672
2018-05-16T05:23:44.143Z,5712
2018-05-16T05:24:10.050Z,5752
2018-05-16T05:24:35.831Z,5776
2018-05-16T05:25:01.519Z,5800
2018-05-16T05:25:27.199Z,5832
2018-05-16T05:25:52.705Z,5864
2018-05-16T05:26:18.190Z,5900
2018-05-16T05:26:43.655Z,5940
2018-05-16T05:27:09.202Z,5980
2018-05-16T05:27:34.662Z,6024
2018-05-16T05:28:00.146Z,6060
2018-05-16T05:28:25.636Z,6084
2018-05-16T05:28:51.145Z,6128
2018-05-16T05:29:16.647Z,6184
2018-05-16T05:29:42.210Z,6244
2018-05-16T05:30:07.735Z,6256
2018-05-16T05:30:33.226Z,6276
2018-05-16T05:30:58.762Z,6300
2018-05-16T05:31:24.231Z,6336
2018-05-16T05:31:50.023Z,6376
2018-05-16T05:32:15.445Z,6384
2018-05-16T05:32:40.975Z,6400
2018-05-16T05:33:06.474Z,6448
2018-05-16T05:33:31.931Z,6476
2018-05-16T05:33:57.492Z,6524
2018-05-16T05:34:22.974Z,6568
2018-05-16T05:34:48.460Z,6644
2018-05-16T05:35:13.955Z,6708
2018-05-16T05:35:39.468Z,6752
2018-05-16T05:36:04.935Z,6788
2018-05-16T05:36:30.515Z,6832
2018-05-16T05:36:56.132Z,6884
2018-05-16T05:37:21.568Z,6916
2018-05-16T05:37:47.064Z,6968
2018-05-16T05:38:12.602Z,7012
2018-05-16T05:38:38.058Z,7056
2018-05-16T05:39:03.608Z,7200
2018-05-16T05:39:29.160Z,7296
2018-05-16T05:39:54.721Z,7404
2018-05-16T05:40:20.129Z,7500
2018-05-16T05:40:45.693Z,7560
2018-05-16T05:41:11.245Z,7596
2018-05-16T05:41:36.946Z,7628
2018-05-16T05:42:02.447Z,7656
2018-05-16T05:42:27.940Z,7636
2018-05-16T05:42:53.567Z,7592
2018-05-16T05:43:19.154Z,7900
2018-05-16T05:43:44.747Z,8152
2018-05-16T05:44:10.232Z,8332
2018-05-16T05:44:35.769Z,8496
2018-05-16T05:45:01.274Z,8636
2018-05-16T05:45:26.739Z,8860
2018-05-16T05:45:52.222Z,9112
2018-05-16T05:47:15.750Z,9760
2018-05-16T05:47:41.268Z,10088
2018-05-16T05:48:06.743Z,10216
2018-05-16T05:48:32.240Z,8012
2018-05-16T05:48:57.732Z,10188
2018-05-16T05:49:23.214Z,10696
2018-05-16T05:49:48.813Z,8808
2018-05-16T05:50:14.233Z,9924
2018-05-16T05:50:39.749Z,11144
2018-05-16T05:51:05.252Z,10616
2018-05-16T05:51:30.764Z,11360
2018-05-16T05:51:56.276Z,10876
2018-05-16T05:52:21.815Z,8228
2018-05-16T05:52:47.301Z,9244
2018-05-16T05:53:12.781Z,6924
2018-05-16T05:53:38.283Z,7164
2018-05-16T05:54:03.755Z,10992
2018-05-16T05:54:29.267Z,11072
2018-05-16T05:54:54.767Z,11340
2018-05-16T05:55:20.268Z,10748
2018-05-16T05:55:45.757Z,8012
2018-05-16T05:56:11.257Z,8000
2018-05-16T05:56:36.771Z,7528
2018-05-16T05:57:02.256Z,7948
2018-05-16T05:57:27.775Z,10580
2018-05-16T05:57:53.252Z,12212
2018-05-16T05:58:18.805Z,13480
2018-05-16T05:58:44.315Z,13320
2018-05-16T05:59:09.764Z,10220
2018-05-16T05:59:35.251Z,16704
2018-05-16T06:00:00.870Z,18592
2018-05-16T06:00:26.261Z,20736
2018-05-16T06:00:51.749Z,22112
2018-05-16T06:01:17.230Z,15744
2018-05-16T06:01:42.709Z,13924
2018-05-16T06:02:08.222Z,24992
2018-05-16T06:02:33.716Z,20192
2018-05-16T06:02:59.206Z,14596
2018-05-16T06:03:24.711Z,12940
2018-05-16T06:03:50.234Z,14256
2018-05-16T06:04:15.779Z,30944
2018-05-16T06:04:41.302Z,18144
2018-05-16T06:05:06.812Z,10448
2018-05-16T06:05:32.355Z,9480
2018-05-16T06:05:57.839Z,17152
2018-05-16T06:06:23.330Z,9740
2018-05-16T06:06:48.808Z,23712
2018-05-16T06:07:14.306Z,10812
2018-05-16T06:07:39.792Z,21824
2018-05-16T06:08:05.295Z,25088
2018-05-16T06:08:30.813Z,9304
2018-05-16T06:08:56.376Z,8508
2018-05-16T06:09:21.852Z,8248
2018-05-16T06:09:47.400Z,8684
2018-05-16T06:10:12.964Z,17088
2018-05-16T06:10:38.439Z,37504
2018-05-16T06:11:03.923Z,34400
2018-05-16T06:11:29.397Z,11128
2018-05-16T06:11:54.868Z,13784
2018-05-16T06:12:20.387Z,24992
2018-05-16T06:12:46.017Z,11640
2018-05-16T06:13:11.431Z,11276
2018-05-16T06:13:36.903Z,10628
2018-05-16T06:14:02.385Z,10964
2018-05-16T06:14:27.880Z,11236
2018-05-16T06:14:53.380Z,12656
2018-05-16T06:15:18.892Z,10676
2018-05-16T06:15:44.331Z,10688
2018-05-16T06:16:09.833Z,10816
2018-05-16T06:16:35.432Z,10888
2018-05-16T06:17:00.907Z,19808
2018-05-16T06:17:26.394Z,14528
2018-05-16T06:17:51.929Z,23232
2018-05-16T06:18:17.429Z,21408
2018-05-16T06:18:42.949Z,19872
2018-05-16T06:19:08.465Z,18848
2018-05-16T06:19:34.050Z,18720
2018-05-16T06:19:59.529Z,18880
2018-05-16T06:20:25.029Z,18816
2018-05-16T06:20:50.548Z,17760
2018-05-16T06:21:16.656Z,17568
2018-05-16T06:21:42.186Z,17472
2018-05-16T06:22:07.659Z,18400
2018-05-16T06:22:33.151Z,22464
2018-05-16T06:22:58.616Z,26464
2018-05-16T06:23:24.144Z,30336
2018-05-16T06:23:49.663Z,33824
2018-05-16T06:24:15.251Z,34560
2018-05-16T06:24:40.766Z,12864
2018-05-16T06:25:06.297Z,17088
2018-05-16T06:25:31.941Z,30240
2018-05-16T06:25:57.458Z,9468
2018-05-16T06:26:22.933Z,8316
2018-05-16T06:26:48.450Z,12916
2018-05-16T06:27:14.130Z,19456
2018-05-16T06:27:39.506Z,12112
2018-05-16T06:28:05.057Z,28800
2018-05-16T06:28:30.546Z,29248
2018-05-16T06:28:56.204Z,29888
2018-05-16T06:29:21.747Z,29536
2018-05-16T06:29:47.645Z,29856
2018-05-16T06:30:13.150Z,29056
2018-05-16T06:30:38.740Z,27936
2018-05-16T06:31:04.488Z,24448
2018-05-16T06:31:29.967Z,20000
2018-05-16T06:31:55.433Z,16352
2018-05-16T06:32:20.935Z,12836
2018-05-16T06:32:46.451Z,10464
2018-05-16T06:33:11.924Z,10152
2018-05-16T06:33:37.415Z,9512
2018-05-16T06:34:02.933Z,9832
2018-05-16T06:34:28.468Z,9644
2018-05-16T06:34:53.992Z,9456
2018-05-16T06:35:19.417Z,9576
2018-05-16T06:35:45.205Z,9520
2018-05-16T06:36:10.942Z,9536
2018-05-16T06:36:36.781Z,9428
2018-05-16T06:37:02.381Z,9000
2018-05-16T06:37:28.162Z,8728
2018-05-16T06:37:53.929Z,8648
2018-05-16T06:38:19.983Z,8812
2018-05-16T06:38:45.895Z,8952
2018-05-16T06:39:11.390Z,9148
2018-05-16T06:39:36.901Z,9284
2018-05-16T06:40:02.302Z,9552
2018-05-16T06:40:28.208Z,9780
2018-05-16T06:40:53.686Z,9808
2018-05-16T06:41:57.369Z,9684
2018-05-16T06:42:22.871Z,9616
2018-05-16T06:42:48.483Z,9628
2018-05-16T06:43:14.147Z,9620
2018-05-16T06:43:39.830Z,9404
2018-05-16T06:44:05.591Z,9440
2018-05-16T06:44:31.228Z,9544
2018-05-16T06:44:57.195Z,9708
2018-05-16T06:45:23.004Z,9872
2018-05-16T06:45:48.737Z,9916
2018-05-16T06:46:14.437Z,10128
2018-05-16T06:46:39.913Z,10108
2018-05-16T06:47:05.674Z,10072
2018-05-16T06:47:31.425Z,10000
2018-05-16T06:47:57.557Z,9772
2018-05-16T06:48:23.340Z,9660
2018-05-16T06:48:48.856Z,9340
2018-05-16T06:49:14.475Z,9096
2018-05-16T06:49:40.119Z,8880
2018-05-16T06:50:05.892Z,8652
2018-05-16T06:50:31.393Z,7912
2018-05-16T06:50:56.991Z,7312
2018-05-16T06:51:22.552Z,7156
2018-05-16T06:51:48.342Z,7080
2018-05-16T06:52:13.868Z,7240
2018-05-16T06:52:39.402Z,7668
2018-05-16T06:53:05.009Z,7916
2018-05-16T06:53:30.590Z,8368
2018-05-16T06:53:56.139Z,8264
2018-05-16T06:54:21.655Z,8696
2018-05-16T06:54:47.146Z,8808
2018-05-16T06:55:12.645Z,8784
2018-05-16T06:55:38.441Z,9260
2018-05-16T06:56:03.932Z,8480
2018-05-16T06:56:29.552Z,7560
2018-05-16T06:56:55.124Z,6840
2018-05-16T06:57:20.727Z,6304
2018-05-16T06:57:46.699Z,5812
2018-05-16T06:58:12.262Z,5344
2018-05-16T06:58:37.734Z,5076
2018-05-16T06:59:03.312Z,4832
2018-05-16T06:59:28.755Z,4640
2018-05-16T06:59:54.275Z,4448
2018-05-16T07:00:19.793Z,4296
2018-05-16T07:00:45.288Z,4184
2018-05-16T07:01:10.798Z,4140
2018-05-16T07:01:36.530Z,4228
2018-05-16T07:02:02.115Z,4412
2018-05-16T07:02:27.585Z,4668
2018-05-16T07:02:53.474Z,4972
2018-05-16T07:03:19.301Z,5152
2018-05-16T07:03:44.679Z,5160
2018-05-16T07:04:10.237Z,4912
2018-05-16T07:04:35.857Z,4484
2018-05-16T07:05:01.336Z,4048
2018-05-16T07:05:26.814Z,3624
2018-05-16T07:05:52.332Z,3260
2018-05-16T07:06:17.808Z,3028
2018-05-16T07:06:43.285Z,2992
2018-05-16T07:07:09.020Z,3008
2018-05-16T07:07:34.539Z,3008
2018-05-16T07:08:00.335Z,2956
2018-05-16T07:08:25.993Z,2944
2018-05-16T07:08:51.676Z,2968
2018-05-16T07:09:17.205Z,3020
2018-05-16T07:09:43.026Z,3116
2018-05-16T07:10:09.147Z,3328
2018-05-16T07:10:35.248Z,3524
2018-05-16T07:11:00.887Z,3668
2018-05-16T07:11:26.660Z,3920
2018-05-16T07:11:53.584Z,4124
2018-05-16T07:12:19.112Z,4376
2018-05-16T07:12:44.600Z,4628
2018-05-16T07:13:10.064Z,4880
2018-05-16T07:13:35.646Z,5160
2018-05-16T07:14:01.315Z,5468
2018-05-16T07:14:26.799Z,5704
2018-05-16T07:14:52.309Z,5840
2018-05-16T07:15:17.806Z,5888
2018-05-16T07:16:41.457Z,5492
2018-05-16T07:17:07.008Z,5468
2018-05-16T07:17:32.423Z,5608
2018-05-16T07:17:57.885Z,5800
2018-05-16T07:18:24.073Z,6080
2018-05-16T07:18:49.461Z,6444
2018-05-16T07:19:14.981Z,6856
2018-05-16T07:19:40.645Z,7024
2018-05-16T07:20:06.453Z,6788
2018-05-16T07:20:31.941Z,6372
2018-05-16T07:20:57.611Z,5924
2018-05-16T07:21:23.024Z,5608
2018-05-16T07:21:48.643Z,5484
2018-05-16T07:22:14.168Z,5472
2018-05-16T07:22:39.725Z,5540
2018-05-16T07:23:05.181Z,5620
2018-05-16T07:23:30.672Z,5700
2018-05-16T07:23:56.188Z,5728
2018-05-16T07:24:21.935Z,5804
2018-05-16T07:24:47.288Z,5740
2018-05-16T07:25:12.816Z,5500
2018-05-16T07:25:38.336Z,5208
2018-05-16T07:26:56.815Z,5548
2018-05-16T07:27:22.317Z,5956
2018-05-16T07:27:48.022Z,6352
2018-05-16T07:28:13.673Z,6664
2018-05-16T07:28:39.150Z,6932
2018-05-16T07:29:04.637Z,7304
2018-05-16T07:29:30.110Z,7420
2018-05-16T07:29:55.838Z,7420
2018-05-16T07:30:21.317Z,7176
2018-05-16T07:30:46.805Z,6644
2018-05-16T07:31:12.267Z,5944
2018-05-16T07:31:37.758Z,5348
2018-05-16T07:32:03.289Z,5020
2018-05-16T07:32:28.747Z,4940
2018-05-16T07:32:54.222Z,5064
2018-05-16T07:33:19.738Z,5068
2018-05-16T07:33:45.288Z,4704
2018-05-16T07:34:10.895Z,4424
2018-05-16T07:34:36.382Z,4492
2018-05-16T07:35:02.321Z,4820
2018-05-16T07:35:27.895Z,5124
2018-05-16T07:35:53.709Z,5176
2018-05-16T07:36:19.586Z,5204
2018-05-16T07:36:45.099Z,5344
2018-05-16T07:37:10.745Z,5560
2018-05-16T07:37:36.386Z,5740
2018-05-16T07:38:01.934Z,5676
2018-05-16T07:38:27.769Z,5552
2018-05-16T07:38:53.549Z,5440
2018-05-16T07:39:19.179Z,5312
2018-05-16T07:39:44.941Z,5340
2018-05-16T07:40:10.623Z,5404
2018-05-16T07:40:36.506Z,5484
2018-05-16T07:41:02.321Z,5488
2018-05-16T07:41:27.854Z,5288
2018-05-16T07:41:53.361Z,5260
2018-05-16T07:42:18.871Z,5472
2018-05-16T07:42:44.426Z,5752
2018-05-16T07:43:10.095Z,5864
2018-05-16T07:43:35.656Z,5672
2018-05-16T07:44:01.156Z,5524
2018-05-16T07:44:26.640Z,5544
2018-05-16T07:44:52.145Z,5620
2018-05-16T07:45:17.779Z,5780
2018-05-16T07:45:43.556Z,6048
2018-05-16T07:46:09.384Z,6132
2018-05-16T07:46:35.297Z,5992
2018-05-16T07:47:00.864Z,5968
2018-05-16T07:47:26.480Z,6136
2018-05-16T07:47:52.140Z,6320
2018-05-16T07:48:17.824Z,6424
2018-05-16T07:48:43.555Z,6516
2018-05-16T07:49:09.528Z,6836
2018-05-16T07:49:35.176Z,7348
2018-05-16T07:50:00.934Z,7680
2018-05-16T07:50:26.715Z,7764
2018-05-16T07:50:52.196Z,7708
2018-05-16T07:51:17.724Z,7472
2018-05-16T07:51:43.103Z,7124
2018-05-16T07:52:08.698Z,6900
2018-05-16T07:52:34.260Z,6788
2018-05-16T07:52:59.904Z,6688
2018-05-16T07:53:25.625Z,6572
2018-05-16T07:53:51.123Z,6572
2018-05-16T07:54:16.624Z,6768
2018-05-16T07:54:42.103Z,7120
2018-05-16T07:55:07.786Z,7536
2018-05-16T07:55:33.188Z,8012
2018-05-16T07:55:58.693Z,8424
2018-05-16T07:56:24.267Z,8756
2018-05-16T07:56:49.789Z,9136
2018-05-16T07:57:15.677Z,9876
2018-05-16T07:57:41.179Z,10372
2018-05-16T07:58:06.954Z,10680
2018-05-16T07:58:32.434Z,10660
2018-05-16T07:58:57.946Z,10580
2018-05-16T07:59:23.778Z,10456
2018-05-16T07:59:49.457Z,10288
2018-05-16T08:00:14.954Z,10228
2018-05-16T08:00:40.575Z,10108
2018-05-16T08:01:06.209Z,9912
2018-05-16T08:01:32.188Z,9740
2018-05-16T08:01:57.868Z,9592
2018-05-16T08:02:23.793Z,9652
2018-05-16T08:02:49.183Z,9848
2018-05-16T08:03:14.842Z,10192
2018-05-16T08:03:40.553Z,10600
2018-05-16T08:04:06.303Z,11192
2018-05-16T08:04:31.928Z,11840
2018-05-16T08:04:57.697Z,12616
2018-05-16T08:05:23.474Z,13308
2018-05-16T08:05:49.187Z,13636
2018-05-16T08:06:14.984Z,13944
2018-05-16T08:06:40.928Z,14184
2018-05-16T08:07:06.764Z,14388
2018-05-16T08:07:32.236Z,14392
2018-05-16T08:07:57.786Z,14508
2018-05-16T08:08:23.459Z,14344
2018-05-16T08:08:48.942Z,13552
2018-05-16T08:09:14.535Z,13204
2018-05-16T08:09:40.117Z,12828
2018-05-16T08:10:05.720Z,12380
2018-05-16T08:10:31.429Z,12044
2018-05-16T08:10:56.982Z,11868
2018-05-16T08:11:22.514Z,11776
2018-05-16T08:11:48.267Z,11772
2018-05-16T08:12:13.937Z,11812
2018-05-16T08:12:40.235Z,11752
2018-05-16T08:13:05.807Z,11572
2018-05-16T08:13:31.532Z,11188
2018-05-16T08:13:57.511Z,10700
2018-05-16T08:14:23.250Z,10336
2018-05-16T08:14:49.069Z,10160
2018-05-16T08:15:15.103Z,10152
2018-05-16T08:15:40.877Z,10324
2018-05-16T08:16:06.449Z,10584
2018-05-16T08:16:32.139Z,10636
2018-05-16T08:16:57.813Z,10836
2018-05-16T08:17:23.434Z,11156
2018-05-16T08:17:48.971Z,11632
2018-05-16T08:18:14.626Z,12180
2018-05-16T08:18:40.218Z,12848
2018-05-16T08:19:05.910Z,13696
2018-05-16T08:19:31.569Z,14268
2018-05-16T08:19:57.330Z,14880
2018-05-16T08:20:22.849Z,14932
2018-05-16T08:20:48.525Z,14756
2018-05-16T08:21:14.339Z,14712
2018-05-16T08:21:40.156Z,14892
2018-05-16T08:22:05.990Z,15328
2018-05-16T08:22:32.326Z,15740
2018-05-16T08:22:58.289Z,15972
2018-05-16T08:23:23.739Z,15960
2018-05-16T08:23:49.353Z,16020
2018-05-16T08:24:14.955Z,16384
2018-05-16T08:24:40.543Z,16832
2018-05-16T08:25:06.174Z,16992
2018-05-16T08:25:31.784Z,17088
2018-05-16T08:25:57.340Z,17248
2018-05-16T08:26:23.044Z,17184
2018-05-16T08:26:48.621Z,17056
2018-05-16T08:27:14.179Z,16928
2018-05-16T08:27:39.735Z,16296
2018-05-16T08:28:05.349Z,15308
2018-05-16T08:28:30.993Z,14368
2018-05-16T08:28:56.515Z,13720
2018-05-16T08:29:22.072Z,13428
2018-05-16T08:29:47.802Z,13612
2018-05-16T08:30:13.405Z,13836
2018-05-16T08:30:39.068Z,13772
2018-05-16T08:31:04.727Z,13700
2018-05-16T08:31:30.358Z,13836
2018-05-16T08:31:56.030Z,13980
2018-05-16T08:32:21.610Z,14168
2018-05-16T08:32:47.194Z,14980
2018-05-16T08:33:12.853Z,14696
2018-05-16T08:33:38.448Z,14764
2018-05-16T08:34:04.037Z,14404
2018-05-16T08:34:29.737Z,13832
2018-05-16T08:34:55.317Z,13732
2018-05-16T08:35:20.894Z,13712
2018-05-16T08:35:46.547Z,13908
2018-05-16T08:36:12.085Z,14004
2018-05-16T08:36:37.748Z,14280
2018-05-16T08:37:03.518Z,15028
2018-05-16T08:37:29.214Z,15432
2018-05-16T08:37:54.961Z,15864
2018-05-16T08:38:20.585Z,15760
2018-05-16T08:38:46.143Z,15568
2018-05-16T08:39:11.853Z,15528
2018-05-16T08:39:37.443Z,15520
2018-05-16T08:40:03.085Z,15508
2018-05-16T08:40:28.734Z,15488
2018-05-16T08:40:54.567Z,15932
2018-05-16T08:41:20.237Z,16992
2018-05-16T08:41:45.879Z,16380
2018-05-16T08:42:11.417Z,15804
2018-05-16T08:42:37.087Z,14948
2018-05-16T08:43:02.736Z,14804
2018-05-16T08:43:28.274Z,14304
2018-05-16T08:43:53.912Z,13792
2018-05-16T08:44:19.488Z,14228
2018-05-16T08:44:45.158Z,13908
2018-05-16T08:45:10.892Z,13416
2018-05-16T08:45:36.573Z,13560
2018-05-16T08:46:02.179Z,13336
2018-05-16T08:46:27.916Z,13736
2018-05-16T08:46:53.544Z,13324
2018-05-16T08:47:19.338Z,13016
2018-05-16T08:47:45.144Z,13160
2018-05-16T08:48:11.025Z,13480
2018-05-16T08:48:37.032Z,13012
2018-05-16T08:49:02.916Z,13528
2018-05-16T08:49:29.441Z,13880
2018-05-16T08:49:55.071Z,13728
2018-05-16T08:50:20.832Z,13636
2018-05-16T08:50:46.540Z,13196
2018-05-16T08:51:12.247Z,13260
2018-05-16T08:51:37.861Z,13356
2018-05-16T08:52:03.722Z,13656
2018-05-16T08:52:29.491Z,14092
2018-05-16T08:52:55.146Z,14152
2018-05-16T08:53:20.904Z,14240
2018-05-16T08:53:46.510Z,14248
2018-05-16T08:54:12.334Z,14308
2018-05-16T08:54:37.987Z,14192
2018-05-16T08:55:03.603Z,14484
2018-05-16T08:55:29.375Z,14944
2018-05-16T08:55:55.062Z,15368
2018-05-16T08:57:04.209Z,16292
2018-05-16T08:57:29.687Z,16144
2018-05-16T08:57:55.464Z,17088
2018-05-16T08:58:21.110Z,17024
2018-05-16T08:58:47.009Z,17248
2018-05-16T08:59:12.481Z,17248
2018-05-16T08:59:38.026Z,16864
2018-05-16T09:00:03.718Z,16800
2018-05-16T09:00:29.220Z,16832
2018-05-16T09:00:54.782Z,16768
2018-05-16T09:01:20.671Z,16576
2018-05-16T09:01:46.043Z,16212
2018-05-16T09:02:11.733Z,15792
2018-05-16T09:02:37.421Z,14872
2018-05-16T09:03:03.084Z,14456
2018-05-16T09:03:28.552Z,14608
2018-05-16T09:03:54.029Z,14948
2018-05-16T09:04:19.544Z,14860
2018-05-16T09:04:45.193Z,14828
2018-05-16T09:05:10.653Z,15072
2018-05-16T09:05:36.179Z,15028
2018-05-16T09:06:01.793Z,15016
2018-05-16T09:06:27.300Z,15216
2018-05-16T09:06:52.816Z,15592
2018-05-16T09:07:18.310Z,15988
2018-05-16T09:07:43.814Z,15876
2018-05-16T09:08:09.337Z,15988
2018-05-16T09:08:34.895Z,15544
2018-05-16T09:09:00.379Z,15600
2018-05-16T09:09:25.924Z,15356
2018-05-16T09:09:51.917Z,15384
2018-05-16T09:10:17.565Z,15340
2018-05-16T09:10:43.304Z,15396
2018-05-16T09:11:08.825Z,15764
2018-05-16T09:11:34.320Z,15912
2018-05-16T09:11:59.912Z,15476
2018-05-16T09:12:25.537Z,15588
2018-05-16T09:12:51.100Z,15436
2018-05-16T09:13:16.586Z,15360
2018-05-16T09:13:42.124Z,15200
2018-05-16T09:14:07.678Z,15536
2018-05-16T09:14:33.273Z,15600
2018-05-16T09:14:58.815Z,15424
2018-05-16T09:15:24.313Z,15308
2018-05-16T09:15:49.908Z,15496
2018-05-16T09:16:15.564Z,15416
2018-05-16T09:16:41.156Z,15448
2018-05-16T09:17:06.703Z,15452
2018-05-16T09:17:32.293Z,15536
2018-05-16T09:17:57.859Z,15500
2018-05-16T09:18:23.311Z,15832
2018-05-16T09:18:48.899Z,15832
2018-05-16T09:19:14.346Z,15780
2018-05-16T09:19:39.900Z,15860
2018-05-16T09:20:05.440Z,15736
2018-05-16T09:20:31.267Z,15656
2018-05-16T09:20:56.828Z,15832
2018-05-16T09:21:22.307Z,15504
2018-05-16T09:21:47.795Z,15236
2018-05-16T09:22:13.499Z,15380
2018-05-16T09:22:39.276Z,15284
2018-05-16T09:23:04.696Z,15196
2018-05-16T09:23:30.460Z,15096
2018-05-16T09:23:55.928Z,15280
2018-05-16T09:24:21.671Z,15288
2018-05-16T09:24:47.621Z,15192
2018-05-16T09:25:13.235Z,15020
2018-05-16T09:25:38.767Z,14876
2018-05-16T09:26:04.441Z,14796
2018-05-16T09:26:30.234Z,14836
2018-05-16T09:26:55.762Z,14868
2018-05-16T09:27:21.694Z,14808
2018-05-16T09:27:47.233Z,14484
2018-05-16T09:28:12.834Z,14004
2018-05-16T09:28:38.497Z,13464
2018-05-16T09:29:04.157Z,12924
2018-05-16T09:29:30.048Z,12508
2018-05-16T09:29:55.774Z,12152
2018-05-16T09:30:21.383Z,11852
2018-05-16T09:30:47.047Z,11680
2018-05-16T09:31:12.492Z,11576
2018-05-16T09:31:38.259Z,11596
2018-05-16T09:32:04.036Z,11572
2018-05-16T09:32:29.654Z,11520
2018-05-16T09:32:55.505Z,11612
2018-05-16T09:33:21.234Z,11856
2018-05-16T09:33:46.902Z,12008
2018-05-16T09:34:12.505Z,11960
2018-05-16T09:34:38.368Z,11744
2018-05-16T09:35:03.916Z,11548
2018-05-16T09:35:29.650Z,11476
2018-05-16T09:35:55.316Z,11424
2018-05-16T09:36:20.749Z,11280
2018-05-16T09:36:46.632Z,11180
2018-05-16T09:37:12.200Z,11184
2018-05-16T09:37:37.978Z,11192
2018-05-16T09:38:04.120Z,11172
2018-05-16T09:38:29.762Z,11164
2018-05-16T09:38:55.471Z,11240
2018-05-16T09:39:21.084Z,11440
2018-05-16T09:39:47.007Z,11676
2018-05-16T09:40:12.516Z,11852
2018-05-16T09:40:37.972Z,11940
2018-05-16T09:41:03.576Z,11948
2018-05-16T09:41:29.196Z,12068
2018-05-16T09:41:54.715Z,12376
2018-05-16T09:42:20.393Z,12804
2018-05-16T09:42:45.871Z,13204
2018-05-16T09:43:11.358Z,13160
2018-05-16T09:43:36.925Z,13092
2018-05-16T09:44:02.501Z,12896
2018-05-16T09:44:27.982Z,12808
2018-05-16T09:44:53.565Z,12756
2018-05-16T09:45:19.035Z,12732
2018-05-16T09:45:44.567Z,12824
2018-05-16T09:46:10.020Z,12888
2018-05-16T09:46:35.520Z,13088
2018-05-16T09:47:01.000Z,13136
2018-05-16T09:47:26.562Z,12812
2018-05-16T09:47:52.051Z,12404
2018-05-16T09:48:17.559Z,11876
2018-05-16T09:48:43.049Z,11188
2018-05-16T09:49:08.561Z,10600
2018-05-16T09:49:34.061Z,10380
2018-05-16T09:49:59.545Z,10312
2018-05-16T09:51:12.865Z,10532
2018-05-16T09:51:38.370Z,10916